Oakes, North Dakota
Current Conditions -  °F | °C
As of 10:15 AM on Thursday 30 Oct 2014 (Local Time) from KGWR Reporting Station
Overcast Overcast  
Wind Chill: 29°   Ceiling: 1000
Heat Index: 39°   Visibility: 10mi
Dew Point: 37°   Wind: 22mph
Humidity: 93%   Direction: 10°N
Pressure: 30.19"   Gusts: 29mph
Location:  46.14°N, 98.09°W
Report Text: KGWR 301515Z AUTO 01019G25KT 10SM OVC010 04/03 A3019 RMK A01 P000
Loading
Personal Weather Stations






























Interactive Weather Map
Tropical Storm Tracking
New forecast layout! Learn more

10-Day Weather Forecast

Advertisements
Track Severe Weather on mobile